createdAt,value
2016-10-24T00:00:55.135Z,70.48
2016-10-24T00:02:07.627Z,70.78
2016-10-24T00:03:21.272Z,70.97
2016-10-24T00:04:33.626Z,70.87
2016-10-24T00:05:47.096Z,70.97
2016-10-24T00:07:00.108Z,70.58
2016-10-24T00:08:12.540Z,70.97
2016-10-24T00:09:25.451Z,70.97
2016-10-24T00:10:38.457Z,70.78
2016-10-24T00:11:51.907Z,71.16
2016-10-24T00:13:05.340Z,70.68
2016-10-24T00:14:18.407Z,70.97
2016-10-24T00:15:31.403Z,70.58
2016-10-24T00:16:43.827Z,70.97
2016-10-24T00:17:57.319Z,71.16
2016-10-24T00:19:10.793Z,71.16
2016-10-24T00:20:23.360Z,71.26
2016-10-24T00:21:36.272Z,71.06
2016-10-24T00:22:49.268Z,71.16
2016-10-24T00:24:01.724Z,70.78
2016-10-24T00:25:15.291Z,71.36
2016-10-24T00:26:27.721Z,71.26
2016-10-24T00:27:40.119Z,71.36
2016-10-24T00:28:52.548Z,71.26
2016-10-24T00:30:05.480Z,71.36
2016-10-24T00:31:18.087Z,71.84
2016-10-24T00:32:29.927Z,72.09
2016-10-24T00:33:43.445Z,71.61
2016-10-24T00:34:55.913Z,72.58
2016-10-24T00:36:09.009Z,71.94
2016-10-24T00:37:21.498Z,71.9
2016-10-24T00:38:35.001Z,71.74
2016-10-24T00:39:47.954Z,71.64
2016-10-24T00:41:01.425Z,71.61
2016-10-24T00:42:14.047Z,72.09
2016-10-24T00:43:26.487Z,71.8
2016-10-24T00:44:39.473Z,71.51
2016-10-24T00:45:51.900Z,72
2016-10-24T00:47:05.520Z,71.9
2016-10-24T00:48:18.523Z,71.7
2016-10-24T00:49:31.051Z,72
2016-10-24T00:50:44.425Z,71.8
2016-10-24T00:51:56.882Z,72.09
2016-10-24T00:53:10.380Z,71.42
2016-10-24T00:54:24.017Z,71.22
2016-10-24T00:55:35.928Z,71.03
2016-10-24T00:56:48.842Z,71.03
2016-10-24T00:58:02.001Z,70.94
2016-10-24T00:59:14.911Z,70.94
2016-10-24T01:00:27.884Z,70.84
2016-10-24T01:01:40.820Z,71.03
2016-10-24T01:02:52.731Z,71.42
2016-10-24T01:04:05.649Z,71.42
2016-10-24T01:05:18.494Z,71.42
2016-10-24T01:06:30.997Z,71.22
2016-10-24T01:07:43.410Z,71.32
2016-10-24T01:08:57.073Z,71.22
2016-10-24T01:10:10.007Z,71.03
2016-10-24T01:11:23.511Z,70.84
2016-10-24T01:12:35.430Z,70.94
2016-10-24T01:13:48.443Z,70.94
2016-10-24T01:15:00.902Z,71.03
2016-10-24T01:16:13.850Z,71.12
2016-10-24T01:17:26.267Z,71.12
2016-10-24T01:18:39.192Z,71.03
2016-10-24T01:19:52.365Z,70.94
2016-10-24T01:21:05.847Z,71.03
2016-10-24T01:22:18.761Z,70.94
2016-10-24T01:23:31.692Z,71.12
2016-10-24T01:24:44.678Z,71.03
2016-10-24T01:25:58.338Z,71.03
2016-10-24T01:27:11.302Z,70.94
2016-10-24T01:28:24.795Z,71.22
2016-10-24T01:29:38.291Z,71.03
2016-10-24T01:30:50.282Z,71.03
2016-10-24T01:32:03.184Z,71.12
2016-10-24T01:33:15.150Z,70.74
2016-10-24T01:34:28.055Z,70.84
2016-10-24T01:35:40.999Z,70.74
2016-10-24T01:36:53.389Z,71.22
2016-10-24T01:38:06.914Z,71.03
2016-10-24T01:39:20.357Z,70.94
2016-10-24T01:40:33.285Z,70.94
2016-10-24T01:41:45.781Z,70.94
2016-10-24T01:42:58.761Z,71.12
2016-10-24T01:44:11.188Z,71.12
2016-10-24T01:45:23.660Z,71.22
2016-10-24T01:46:36.600Z,71.32
2016-10-24T01:47:49.530Z,71.03
2016-10-24T01:49:01.918Z,70.74
2016-10-24T01:50:15.412Z,71.03
2016-10-24T01:51:27.320Z,70.84
2016-10-24T01:52:39.780Z,70.94
2016-10-24T01:53:52.221Z,70.94
2016-10-24T01:55:04.685Z,70.45
2016-10-24T01:56:17.655Z,70.45
2016-10-24T01:57:31.100Z,71.03
2016-10-24T01:58:44.071Z,70.54
2016-10-24T01:59:57.063Z,70.74
2016-10-24T02:01:09.488Z,70.64
2016-10-24T02:02:21.408Z,70.74
2016-10-24T02:03:33.964Z,70.84
2016-10-24T02:04:47.433Z,70.94
2016-10-24T02:06:00.369Z,70.94
2016-10-24T02:07:13.888Z,70.64
2016-10-24T02:08:25.845Z,70.64
2016-10-24T02:09:38.787Z,70.45
2016-10-24T02:10:51.324Z,70.45
2016-10-24T02:12:03.739Z,70.84
2016-10-24T02:13:16.278Z,70.64
2016-10-24T02:14:29.836Z,70.84
2016-10-24T02:15:42.369Z,70.84
2016-10-24T02:16:55.856Z,70.84
2016-10-24T02:18:08.315Z,71.03
2016-10-24T02:19:21.303Z,70.84
2016-10-24T02:20:34.252Z,70.45
2016-10-24T02:21:46.683Z,70.45
2016-10-24T02:23:00.146Z,70.94
2016-10-24T02:24:12.598Z,70.64
2016-10-24T02:25:26.184Z,70.64
2016-10-24T02:26:39.183Z,70.54
2016-10-24T02:27:52.673Z,70.94
2016-10-24T02:29:05.103Z,71.03
2016-10-24T02:30:18.598Z,71.12
2016-10-24T02:31:31.976Z,70.94
2016-10-24T02:32:44.378Z,70.84
2016-10-24T02:33:56.856Z,70.94
2016-10-24T02:35:10.359Z,70.64
2016-10-24T02:36:23.934Z,71.03
2016-10-24T02:37:36.389Z,71.12
2016-10-24T02:38:49.877Z,71.12
2016-10-24T02:40:02.887Z,71.32
2016-10-24T02:41:15.831Z,71.22
2016-10-24T02:42:29.545Z,71.09
2016-10-24T02:43:41.966Z,71.22
2016-10-24T02:44:54.876Z,71.03
2016-10-24T02:46:07.861Z,71.22
2016-10-24T02:47:21.539Z,71.03
2016-10-24T02:48:34.980Z,71.03
2016-10-24T02:49:47.421Z,71.03
2016-10-24T02:51:00.877Z,70.84
2016-10-24T02:52:14.316Z,70.94
2016-10-24T02:53:27.342Z,71.03
2016-10-24T02:54:40.292Z,70.94
2016-10-24T02:55:53.800Z,71.09
2016-10-24T02:57:05.714Z,71.51
2016-10-24T02:58:18.701Z,71.42
2016-10-24T02:59:31.619Z,71.28
2016-10-24T03:00:44.607Z,71.28
2016-10-24T03:01:57.532Z,71.38
2016-10-24T03:03:09.490Z,71.61
2016-10-24T03:04:22.485Z,71.77
2016-10-24T03:05:35.448Z,71.86
2016-10-24T03:06:47.880Z,71.48
2016-10-24T03:08:00.340Z,71.96
2016-10-24T03:09:13.936Z,71.67
2016-10-24T03:10:27.423Z,71.48
2016-10-24T03:11:39.844Z,71.48
2016-10-24T03:12:52.260Z,71.58
2016-10-24T03:14:05.173Z,71.77
2016-10-24T03:15:18.293Z,71.58
2016-10-24T03:16:31.196Z,71.77
2016-10-24T03:17:43.641Z,71.58
2016-10-24T03:18:56.584Z,71.96
2016-10-24T03:20:10.148Z,71.86
2016-10-24T03:21:22.625Z,71.86
2016-10-24T03:22:34.564Z,71.67
2016-10-24T03:23:47.485Z,71.58
2016-10-24T03:25:00.426Z,71.77
2016-10-24T03:26:12.893Z,71.38
2016-10-24T03:27:25.335Z,72.63
2016-10-24T03:28:37.788Z,72.63
2016-10-24T03:29:50.755Z,72.25
2016-10-24T03:31:03.366Z,72.34
2016-10-24T03:32:16.385Z,72.34
2016-10-24T03:33:29.321Z,72.44
2016-10-24T03:34:41.785Z,72.25
2016-10-24T03:35:54.194Z,72.34
2016-10-24T03:37:07.629Z,72.44
2016-10-24T03:38:21.094Z,72.54
2016-10-24T03:39:34.058Z,72.63
2016-10-24T03:40:46.507Z,72.34
2016-10-24T03:41:59.023Z,72.34
2016-10-24T03:43:11.470Z,72.34
2016-10-24T03:44:23.859Z,72.34
2016-10-24T03:45:36.806Z,72.34
2016-10-24T03:46:48.675Z,72.44
2016-10-24T03:48:02.212Z,72.34
2016-10-24T03:49:14.611Z,72.63
2016-10-24T03:50:27.014Z,72.34
2016-10-24T03:51:40.560Z,72.25
2016-10-24T03:52:53.657Z,72.25
2016-10-24T03:54:05.504Z,72.34
2016-10-24T03:55:17.934Z,72.63
2016-10-24T03:56:29.872Z,72.54
2016-10-24T03:57:42.876Z,72.54
2016-10-24T03:58:55.275Z,72.54
2016-10-24T04:00:08.227Z,72.92
2016-10-24T04:01:20.629Z,72.92
2016-10-24T04:02:33.645Z,73.02
2016-10-24T04:03:47.364Z,73.11
2016-10-24T04:05:00.342Z,72.83
2016-10-24T04:06:13.353Z,72.92
2016-10-24T04:07:26.333Z,72.83
2016-10-24T04:08:39.783Z,72.92
2016-10-24T04:09:53.294Z,72.83
2016-10-24T04:11:05.730Z,72.63
2016-10-24T04:12:18.193Z,72.92
2016-10-24T04:13:31.721Z,72.83
2016-10-24T04:14:44.806Z,72.83
2016-10-24T04:15:56.827Z,72.92
2016-10-24T04:17:10.289Z,73.31
2016-10-24T04:18:23.319Z,73.11
2016-10-24T04:19:36.278Z,73.31
2016-10-24T04:20:49.210Z,73.21
2016-10-24T04:22:02.109Z,73.31
2016-10-24T04:23:14.566Z,73.21
2016-10-24T04:24:27.531Z,73.02
2016-10-24T04:25:40.096Z,72.92
2016-10-24T04:26:53.299Z,73.11
2016-10-24T04:28:06.287Z,73.41
2016-10-24T04:29:18.219Z,73.11
2016-10-24T04:30:31.279Z,73.5
2016-10-24T04:31:44.344Z,73.79
2016-10-24T04:32:56.704Z,73.89
2016-10-24T04:34:09.730Z,74.08
2016-10-24T04:35:22.773Z,73.79
2016-10-24T04:36:35.885Z,73.41
2016-10-24T04:37:49.369Z,73.6
2016-10-24T04:39:01.333Z,73.79
2016-10-24T04:40:14.266Z,73.89
2016-10-24T04:41:27.722Z,74.08
2016-10-24T04:42:40.819Z,74.08
2016-10-24T04:43:53.240Z,73.89
2016-10-24T04:45:06.166Z,74.18
2016-10-24T04:46:19.118Z,74.18
2016-10-24T04:47:32.743Z,73.99
2016-10-24T04:48:45.682Z,73.89
2016-10-24T04:49:59.231Z,74.08
2016-10-24T04:51:11.650Z,74.08
2016-10-24T04:52:25.165Z,74.08
2016-10-24T04:53:38.750Z,73.99
2016-10-24T04:54:51.197Z,74.08
2016-10-24T04:56:04.161Z,74.08
2016-10-24T04:57:16.106Z,74.08
2016-10-24T04:58:28.688Z,74.08
2016-10-24T04:59:41.664Z,73.99
2016-10-24T05:00:54.031Z,73.99
2016-10-24T05:02:06.477Z,73.99
2016-10-24T05:03:19.522Z,74.27
2016-10-24T05:04:31.525Z,74.66
2016-10-24T05:05:44.608Z,74.47
2016-10-24T05:06:58.103Z,74.47
2016-10-24T05:08:10.584Z,74.24
2016-10-24T05:09:24.328Z,74.27
2016-10-24T05:10:37.424Z,74.08
2016-10-24T05:11:50.938Z,74.37
2016-10-24T05:13:03.334Z,74.37
2016-10-24T05:14:16.996Z,74.08
2016-10-24T05:15:28.884Z,74.05
2016-10-24T05:16:41.264Z,74.43
2016-10-24T05:17:53.123Z,74.52
2016-10-24T05:19:05.639Z,74.43
2016-10-24T05:20:18.699Z,74.24
2016-10-24T05:21:31.110Z,74.24
2016-10-24T05:22:43.680Z,74.43
2016-10-24T05:23:56.696Z,74.43
2016-10-24T05:25:09.732Z,74.62
2016-10-24T05:26:22.127Z,74.52
2016-10-24T05:27:35.202Z,74.33
2016-10-24T05:28:47.660Z,74.52
2016-10-24T05:30:00.774Z,74.33
2016-10-24T05:31:13.325Z,74.43
2016-10-24T05:32:25.259Z,74.33
2016-10-24T05:33:38.730Z,74.24
2016-10-24T05:34:51.131Z,74.62
2016-10-24T05:36:04.327Z,74.14
2016-10-24T05:37:17.411Z,74.27
2016-10-24T05:38:30.421Z,74.05
2016-10-24T05:39:42.363Z,74.33
2016-10-24T05:40:55.291Z,74.62
2016-10-24T05:42:08.912Z,74.52
2016-10-24T05:43:21.836Z,74.62
2016-10-24T05:44:35.274Z,74.72
2016-10-24T05:45:48.253Z,74.62
2016-10-24T05:47:00.692Z,74.72
2016-10-24T05:48:14.309Z,74.82
2016-10-24T05:49:27.827Z,74.62
2016-10-24T05:50:40.810Z,74.82
2016-10-24T05:51:54.432Z,74.82
2016-10-24T05:53:08.013Z,74.52
2016-10-24T05:54:20.097Z,74.52
2016-10-24T05:55:32.636Z,75.4
2016-10-24T05:56:45.614Z,75.68
2016-10-24T05:57:58.681Z,75.59
2016-10-24T05:59:12.145Z,75.68
2016-10-24T06:00:25.235Z,75.88
2016-10-24T06:01:38.872Z,75.49
2016-10-24T06:02:51.835Z,75.97
2016-10-24T06:04:04.948Z,75.59
2016-10-24T06:05:17.283Z,75.78
2016-10-24T06:06:30.760Z,75.49
2016-10-24T06:07:43.156Z,75.4
2016-10-24T06:08:56.109Z,75.4
2016-10-24T06:10:08.033Z,76.07
2016-10-24T06:11:21.152Z,76.17
2016-10-24T06:12:34.647Z,75.88
2016-10-24T06:13:47.379Z,76.03
2016-10-24T06:14:59.942Z,76.13
2016-10-24T06:16:11.883Z,76.17
2016-10-24T06:17:25.513Z,76.13
2016-10-24T06:18:38.494Z,75.93
2016-10-24T06:19:51.445Z,75.93
2016-10-24T06:21:03.878Z,76.13
2016-10-24T06:22:16.811Z,75.84
2016-10-24T06:23:29.890Z,75.26
2016-10-24T06:24:42.844Z,75.55
2016-10-24T06:25:55.998Z,75.36
2016-10-24T06:27:09.828Z,75.65
2016-10-24T06:28:21.723Z,75.68
2016-10-24T06:29:34.632Z,75.65
2016-10-24T06:30:47.766Z,75.68
2016-10-24T06:32:01.175Z,75.68
2016-10-24T06:33:13.199Z,75.68
2016-10-24T06:34:25.625Z,75.68
2016-10-24T06:35:38.582Z,75.59
2016-10-24T06:36:52.237Z,75.36
2016-10-24T06:38:04.209Z,75.65
2016-10-24T06:39:17.131Z,75.36
2016-10-24T06:40:30.742Z,75.36
2016-10-24T06:41:44.291Z,75.88
2016-10-24T06:42:56.798Z,76.17
2016-10-24T06:44:09.208Z,75.74
2016-10-24T06:45:22.312Z,75.93
2016-10-24T06:46:35.939Z,75.93
2016-10-24T06:47:49.562Z,76.42
2016-10-24T06:49:03.079Z,75.93
2016-10-24T06:50:15.501Z,76.32
2016-10-24T06:51:29.166Z,75.74
2016-10-24T06:52:42.347Z,76.03
2016-10-24T06:53:55.908Z,76.13
2016-10-24T06:55:08.876Z,75.74
2016-10-24T06:56:20.901Z,76.23
2016-10-24T06:57:33.787Z,76.42
2016-10-24T06:58:47.423Z,76.23
2016-10-24T06:59:59.434Z,76.23
2016-10-24T07:01:12.351Z,75.93
2016-10-24T07:02:25.011Z,75.93
2016-10-24T07:03:37.021Z,76.23
2016-10-24T07:04:50.644Z,76.03
2016-10-24T07:06:04.194Z,75.74
2016-10-24T07:07:17.610Z,75.93
2016-10-24T07:08:31.101Z,76.13
2016-10-24T07:09:44.911Z,76.03
2016-10-24T07:10:56.892Z,75.93
2016-10-24T07:12:09.373Z,76.13
2016-10-24T07:13:22.456Z,75.93
2016-10-24T07:14:34.824Z,76.23
2016-10-24T07:15:47.944Z,76.03
2016-10-24T07:16:59.839Z,76.03
2016-10-24T07:18:12.817Z,75.84
2016-10-24T07:19:26.350Z,76.03
2016-10-24T07:20:39.414Z,76.13
2016-10-24T07:21:51.882Z,75.74
2016-10-24T07:23:05.423Z,76.03
2016-10-24T07:24:17.308Z,76.23
2016-10-24T07:25:30.418Z,76.13
2016-10-24T07:26:43.923Z,76.23
2016-10-24T07:27:56.385Z,76.13
2016-10-24T07:29:09.369Z,76.42
2016-10-24T07:30:21.904Z,76.42
2016-10-24T07:31:34.584Z,76.32
2016-10-24T07:32:46.477Z,76.51
2016-10-24T07:34:00.345Z,76.32
2016-10-24T07:35:13.881Z,76.42
2016-10-24T07:36:26.948Z,76.13
2016-10-24T07:37:39.906Z,76.42
2016-10-24T07:38:52.947Z,76.23
2016-10-24T07:40:05.437Z,75.74
2016-10-24T07:41:19.063Z,76.13
2016-10-24T07:42:32.222Z,75.74
2016-10-24T07:43:44.640Z,75.93
2016-10-24T07:44:57.594Z,75.93
2016-10-24T07:46:10.063Z,76.32
2016-10-24T07:47:23.000Z,75.84
2016-10-24T07:48:35.427Z,76.23
2016-10-24T07:49:49.100Z,75.93
2016-10-24T07:51:02.041Z,76.51
2016-10-24T07:52:14.958Z,76.32
2016-10-24T07:53:27.991Z,76.32
2016-10-24T07:54:41.025Z,76.8
2016-10-24T07:55:53.955Z,76.71
2016-10-24T07:57:06.348Z,76.23
2016-10-24T07:58:19.240Z,76.32
2016-10-24T07:59:32.149Z,76.42
2016-10-24T08:00:45.569Z,76.13
2016-10-24T08:01:59.060Z,76.03
2016-10-24T08:03:11.997Z,76.23
2016-10-24T08:04:24.078Z,76.42
2016-10-24T08:05:36.582Z,76.42
2016-10-24T08:06:48.999Z,76.13
2016-10-24T08:08:02.468Z,76.9
2016-10-24T08:09:15.314Z,76.9
2016-10-24T08:10:27.862Z,76.8
2016-10-24T08:11:40.768Z,76.42
2016-10-24T08:12:54.272Z,76.42
2016-10-24T08:14:06.683Z,76.9
2016-10-24T08:15:20.290Z,76.9
2016-10-24T08:16:33.800Z,77.09
2016-10-24T08:17:46.214Z,77
2016-10-24T08:18:58.624Z,76.71
2016-10-24T08:20:11.167Z,77
2016-10-24T08:21:24.164Z,77.28
2016-10-24T08:22:37.626Z,77.19
2016-10-24T08:23:51.099Z,76.9
2016-10-24T08:25:03.999Z,77.09
2016-10-24T08:26:17.024Z,77.09
2016-10-24T08:27:29.883Z,76.9
2016-10-24T08:28:42.286Z,77.38
2016-10-24T08:29:54.343Z,77.28
2016-10-24T08:31:07.846Z,76.9
2016-10-24T08:32:20.293Z,77
2016-10-24T08:33:33.257Z,77.38
2016-10-24T08:34:46.155Z,77.09
2016-10-24T08:35:59.105Z,76.61
2016-10-24T08:37:12.698Z,77.09
2016-10-24T08:38:25.671Z,77.19
2016-10-24T08:39:39.214Z,77.38
2016-10-24T08:40:51.738Z,77.38
2016-10-24T08:42:05.252Z,77.19
2016-10-24T08:43:17.190Z,77.76
2016-10-24T08:44:30.148Z,77.76
2016-10-24T08:45:43.130Z,77.38
2016-10-24T08:46:56.139Z,77.38
2016-10-24T08:48:09.377Z,77.28
2016-10-24T08:49:22.412Z,76.8
2016-10-24T08:50:34.813Z,76.71
2016-10-24T08:51:48.002Z,76.42
2016-10-24T08:52:59.974Z,76.45
2016-10-24T08:54:12.966Z,76.71
2016-10-24T08:55:25.945Z,76.93
2016-10-24T08:56:39.004Z,76.36
2016-10-24T08:57:52.052Z,76.26
2016-10-24T08:59:05.186Z,76.17
2016-10-24T09:00:18.954Z,76.26
2016-10-24T09:01:31.337Z,75.97
2016-10-24T09:02:43.275Z,75.97
2016-10-24T09:03:56.287Z,76.01
2016-10-24T09:05:09.255Z,75.49
2016-10-24T09:06:22.698Z,75.4
2016-10-24T09:07:35.248Z,75.62
2016-10-24T09:08:46.618Z,75.43
2016-10-24T09:09:59.197Z,75.14
2016-10-24T09:11:11.696Z,75.82
2016-10-24T09:12:25.318Z,75.34
2016-10-24T09:13:37.715Z,75.62
2016-10-24T09:14:49.580Z,75.43
2016-10-24T09:16:02.763Z,75.53
2016-10-24T09:17:16.238Z,75.24
2016-10-24T09:18:30.219Z,75.43
2016-10-24T09:19:43.044Z,75.05
2016-10-24T09:20:56.960Z,74.95
2016-10-24T09:22:08.376Z,74.85
2016-10-24T09:23:22.217Z,74.76
2016-10-24T09:24:34.699Z,74.76
2016-10-24T09:25:48.097Z,74.85
2016-10-24T09:27:01.432Z,74.66
2016-10-24T09:28:16.051Z,74.27
2016-10-24T09:29:28.907Z,74.27
2016-10-24T09:30:41.982Z,74.69
2016-10-24T09:31:54.134Z,73.83
2016-10-24T09:33:06.504Z,74.02
2016-10-24T09:34:20.051Z,73.54
2016-10-24T09:35:33.137Z,73.63
2016-10-24T09:36:45.693Z,73.73
2016-10-24T09:37:59.735Z,73.83
2016-10-24T09:39:12.922Z,73.83
2016-10-24T09:40:26.391Z,73.44
2016-10-24T09:41:38.832Z,73.35
2016-10-24T09:42:51.389Z,73.35
2016-10-24T09:44:04.972Z,73.54
2016-10-24T09:45:17.995Z,73.35
2016-10-24T09:46:30.496Z,73.44
2016-10-24T09:47:44.015Z,72.96
2016-10-24T09:48:57.015Z,73.35
2016-10-24T09:50:10.008Z,73.06
2016-10-24T09:51:23.038Z,72.52
2016-10-24T09:52:36.091Z,72.42
2016-10-24T09:53:49.595Z,71.84
2016-10-24T09:55:03.152Z,71.64
2016-10-24T09:56:16.764Z,71.74
2016-10-24T09:57:29.188Z,71.94
2016-10-24T09:58:42.658Z,71.74
2016-10-24T09:59:55.755Z,72.13
2016-10-24T10:01:09.248Z,71.3
2016-10-24T10:02:22.259Z,71.06
2016-10-24T10:03:35.492Z,71.3
2016-10-24T10:04:49.606Z,70.9
2016-10-24T10:06:03.192Z,70.52
2016-10-24T10:07:15.669Z,71
2016-10-24T10:08:29.253Z,69.94
2016-10-24T10:09:42.731Z,70.23
2016-10-24T10:10:55.300Z,70.32
2016-10-24T10:12:07.785Z,69.46
2016-10-24T10:13:20.205Z,69.78
2016-10-24T10:14:33.473Z,69.26
2016-10-24T10:15:46.729Z,69.4
2016-10-24T10:17:00.355Z,69.3
2016-10-24T10:18:12.218Z,68.82
2016-10-24T10:19:25.237Z,68.72
2016-10-24T10:20:38.264Z,68.46
2016-10-24T10:21:51.426Z,68.56
2016-10-24T10:23:03.972Z,68.08
2016-10-24T10:24:15.927Z,67.59
2016-10-24T10:25:28.863Z,67.21
2016-10-24T10:26:42.073Z,67.21
2016-10-24T10:27:54.199Z,66.75
2016-10-24T10:29:07.291Z,66.75
2016-10-24T10:30:19.278Z,66.66
2016-10-24T10:31:32.376Z,66.47
2016-10-24T10:32:46.294Z,66.17
2016-10-24T10:34:00.343Z,66.5
2016-10-24T10:35:22.657Z,65.24
2016-10-24T10:36:46.429Z,64.95
2016-10-24T10:38:08.486Z,65.05
2016-10-24T10:39:21.411Z,64.66
2016-10-24T10:40:33.804Z,64.47
2016-10-24T10:41:47.620Z,64.59
2016-10-24T10:43:00.656Z,64.89
2016-10-24T10:44:13.614Z,63.92
2016-10-24T10:45:26.105Z,63.53
2016-10-24T10:46:39.686Z,63.82
2016-10-24T10:47:53.370Z,63.34
2016-10-24T10:49:05.835Z,62.85
2016-10-24T10:50:18.305Z,62.69
2016-10-24T10:51:30.870Z,62.79
2016-10-24T10:52:44.550Z,62.75
2016-10-24T10:53:57.986Z,63.04
2016-10-24T10:55:11.583Z,63.04
2016-10-24T10:56:24.451Z,62.85
2016-10-24T10:57:37.590Z,62.79
2016-10-24T10:58:50.257Z,62.88
2016-10-24T11:00:03.850Z,62.4
2016-10-24T11:01:17.363Z,62.33
2016-10-24T11:02:30.853Z,61.75
2016-10-24T11:03:44.520Z,61.46
2016-10-24T11:04:58.049Z,61.46
2016-10-24T11:06:10.503Z,61.07
2016-10-24T11:07:22.981Z,60.97
2016-10-24T11:08:35.470Z,60.88
2016-10-24T11:09:47.956Z,60.3
2016-10-24T11:11:00.942Z,60.71
2016-10-24T11:12:13.910Z,60.71
2016-10-24T11:13:26.302Z,60.71
2016-10-24T11:14:38.831Z,59.94
2016-10-24T11:15:51.940Z,60.13
2016-10-24T11:17:04.895Z,59.55
2016-10-24T11:18:17.419Z,59.16
2016-10-24T11:19:29.394Z,59.06
2016-10-24T11:20:42.575Z,59
2016-10-24T11:21:55.006Z,58.8
2016-10-24T11:23:06.424Z,58.05
2016-10-24T11:24:19.619Z,58.05
2016-10-24T11:25:33.341Z,58.05
2016-10-24T11:26:46.368Z,58.12
2016-10-24T11:27:58.865Z,58.12
2016-10-24T11:29:11.872Z,58.31
2016-10-24T11:30:23.274Z,58.7
2016-10-24T11:31:35.949Z,58.77
2016-10-24T11:32:48.998Z,59.16
2016-10-24T11:34:02.420Z,58.97
2016-10-24T11:35:14.864Z,59.16
2016-10-24T11:36:27.536Z,59.26
2016-10-24T11:37:40.043Z,59.26
2016-10-24T11:38:52.598Z,60.03
2016-10-24T11:40:06.293Z,60.3
2016-10-24T11:41:19.515Z,60.1
2016-10-24T11:42:31.920Z,60.3
2016-10-24T11:43:44.378Z,60.68
2016-10-24T11:44:56.984Z,60.49
2016-10-24T11:46:10.051Z,60.2
2016-10-24T11:47:23.457Z,60.49
2016-10-24T11:48:38.070Z,60.39
2016-10-24T11:49:53.980Z,60.39
2016-10-24T11:51:10.720Z,60.78
2016-10-24T11:52:22.681Z,60.2
2016-10-24T11:53:35.144Z,60.49
2016-10-24T11:54:48.772Z,60.49
2016-10-24T11:56:02.324Z,60.39
2016-10-24T11:57:15.858Z,60.68
2016-10-24T11:58:29.351Z,60.68
2016-10-24T11:59:41.806Z,60.39
2016-10-24T12:00:54.214Z,60.88
2016-10-24T12:02:07.193Z,60.88
2016-10-24T12:03:19.713Z,60.2
2016-10-24T12:04:32.768Z,60.88
2016-10-24T12:05:45.206Z,60.68
2016-10-24T12:06:58.138Z,60.49
2016-10-24T12:08:10.988Z,60.39
2016-10-24T12:09:23.937Z,60.1
2016-10-24T12:10:37.369Z,60.2
2016-10-24T12:11:50.398Z,60.3
2016-10-24T12:13:04.172Z,60.2
2016-10-24T12:14:18.025Z,60.49
2016-10-24T12:15:32.380Z,60.49
2016-10-24T12:16:45.290Z,60.2
2016-10-24T12:17:58.375Z,60.3
2016-10-24T12:19:11.789Z,60.23
2016-10-24T12:20:28.315Z,60.32
2016-10-24T12:21:41.916Z,60.03
2016-10-24T12:22:55.364Z,59.94
2016-10-24T12:24:09.026Z,59.48
2016-10-24T12:25:21.474Z,59.09
2016-10-24T12:26:35.047Z,59.38
2016-10-24T12:27:47.436Z,58.93
2016-10-24T12:29:00.579Z,58.25
2016-10-24T12:30:14.116Z,57.96
2016-10-24T12:31:26.617Z,57.69
2016-10-24T12:32:39.342Z,57.5
2016-10-24T12:33:52.993Z,57.31
2016-10-24T12:35:05.619Z,57.5
2016-10-24T12:36:18.130Z,57.6
2016-10-24T12:37:30.598Z,57.6
2016-10-24T12:38:43.727Z,57.31
2016-10-24T12:39:56.213Z,57.43
2016-10-24T12:41:07.726Z,56.85
2016-10-24T12:42:20.773Z,56.65
2016-10-24T12:43:33.051Z,56.46
2016-10-24T12:44:45.968Z,56.65
2016-10-24T12:45:58.463Z,56.59
2016-10-24T12:47:12.038Z,56.2
2016-10-24T12:48:23.947Z,55.9
2016-10-24T12:49:36.383Z,55.51
2016-10-24T12:50:47.784Z,55.41
2016-10-24T12:52:00.943Z,55.41
2016-10-24T12:53:14.570Z,55.8
2016-10-24T12:54:27.255Z,55.32
2016-10-24T12:55:40.452Z,55.32
2016-10-24T12:56:53.928Z,55.51
2016-10-24T12:58:07.530Z,55.13
2016-10-24T12:59:19.906Z,55.22
2016-10-24T13:00:31.861Z,55.61
2016-10-24T13:01:45.286Z,55.32
2016-10-24T13:02:57.831Z,55.64
2016-10-24T13:04:10.304Z,55.35
2016-10-24T13:05:22.242Z,55.44
2016-10-24T13:06:35.648Z,54.96
2016-10-24T13:07:48.639Z,54.96
2016-10-24T13:09:01.515Z,54.66
2016-10-24T13:10:13.486Z,55.25
2016-10-24T13:11:25.950Z,55.15
2016-10-24T13:12:38.353Z,55.54
2016-10-24T13:13:50.890Z,55.54
2016-10-24T13:15:03.336Z,56.03
2016-10-24T13:16:15.831Z,55.44
2016-10-24T13:17:29.308Z,55.15
2016-10-24T13:18:42.531Z,55.18
2016-10-24T13:19:55.435Z,54.89
2016-10-24T13:21:09.034Z,54.4
2016-10-24T13:22:22.274Z,54.01
2016-10-24T13:23:35.764Z,54.11
2016-10-24T13:24:48.967Z,53.91
2016-10-24T13:26:02.701Z,53.75
2016-10-24T13:27:15.669Z,53.33
2016-10-24T13:28:28.606Z,53.55
2016-10-24T13:29:41.551Z,53.36
2016-10-24T13:30:54.172Z,53.75
2016-10-24T13:32:07.703Z,53.26
2016-10-24T13:33:20.740Z,53.26
2016-10-24T13:34:32.667Z,53.06
2016-10-24T13:35:45.234Z,53.45
2016-10-24T13:36:58.703Z,52.7
2016-10-24T13:38:11.182Z,52.4
2016-10-24T13:39:24.172Z,52.02
2016-10-24T13:40:36.612Z,52.04
2016-10-24T13:41:49.580Z,52.04
2016-10-24T13:43:02.500Z,51.65
2016-10-24T13:44:15.511Z,51.95
2016-10-24T13:45:27.966Z,50.87
2016-10-24T13:46:41.098Z,50.58
2016-10-24T13:47:54.041Z,50.8
2016-10-24T13:49:07.530Z,50.7
2016-10-24T13:50:20.459Z,50.02
2016-10-24T13:51:33.489Z,49.93
2016-10-24T13:52:45.928Z,49.93
2016-10-24T13:53:58.462Z,50.04
2016-10-24T13:55:12.074Z,49.85
2016-10-24T13:56:25.029Z,49.56
2016-10-24T13:57:37.592Z,48.68
2016-10-24T13:58:49.582Z,48.78
2016-10-24T14:00:03.098Z,48.9
2016-10-24T14:01:15.568Z,48.71
2016-10-24T14:02:29.088Z,48.71
2016-10-24T14:03:42.544Z,48.63
2016-10-24T14:04:55.540Z,48.14
2016-10-24T14:06:08.450Z,48.34
2016-10-24T14:07:21.039Z,47.66
2016-10-24T14:08:34.778Z,47.66
2016-10-24T14:09:47.191Z,47.46
2016-10-24T14:11:00.169Z,46.97
2016-10-24T14:12:13.721Z,47.38
2016-10-24T14:13:27.281Z,46.99
2016-10-24T14:14:42.665Z,46.5
2016-10-24T14:15:56.072Z,46.99
2016-10-24T14:17:09.758Z,46.43
2016-10-24T14:18:22.747Z,46.14
2016-10-24T14:19:35.429Z,46.04
2016-10-24T14:20:48.497Z,46.04
2016-10-24T14:22:01.711Z,45.36
2016-10-24T14:23:14.747Z,44.98
2016-10-24T14:24:27.574Z,45.18
2016-10-24T14:25:42.753Z,44.79
2016-10-24T14:26:55.183Z,44.69
2016-10-24T14:28:08.623Z,44.42
2016-10-24T14:29:21.626Z,44.23
2016-10-24T14:30:33.705Z,44.69
2016-10-24T14:31:46.380Z,44.79
2016-10-24T14:33:30.775Z,44.1
2016-10-24T14:34:43.732Z,44.01
2016-10-24T14:35:56.828Z,44.32
2016-10-24T14:37:09.289Z,43.93
2016-10-24T14:38:22.308Z,43.44
2016-10-24T14:39:35.855Z,42.58
2016-10-24T14:40:48.895Z,41.82
2016-10-24T14:42:02.758Z,41.35
2016-10-24T14:43:15.706Z,41.55
2016-10-24T14:44:28.138Z,41.35
2016-10-24T14:45:40.613Z,41.55
2016-10-24T14:46:52.784Z,41.23
2016-10-24T14:48:05.337Z,41.62
2016-10-24T14:49:18.911Z,41.8
2016-10-24T14:50:32.439Z,41.82
2016-10-24T14:51:46.147Z,41.82
2016-10-24T14:52:58.839Z,41.92
2016-10-24T14:54:12.461Z,41.82
2016-10-24T14:55:24.929Z,41.62
2016-10-24T14:56:36.331Z,41.33
2016-10-24T14:57:49.484Z,40.94
2016-10-24T14:59:03.276Z,40.56
2016-10-24T15:00:15.749Z,39.98
2016-10-24T15:01:28.767Z,39.41
2016-10-24T15:02:40.695Z,39.41
2016-10-24T15:03:53.086Z,39.01
2016-10-24T15:05:06.206Z,37.96
2016-10-24T15:06:18.645Z,37.38
2016-10-24T15:07:31.133Z,36.72
2016-10-24T15:08:44.829Z,34.99
2016-10-24T15:09:57.304Z,33.72
2016-10-24T15:11:09.416Z,32.97
2016-10-24T15:12:21.932Z,31.82
2016-10-24T15:13:34.404Z,30.94
2016-10-24T15:14:48.145Z,30.4
2016-10-24T15:16:00.107Z,29.43
2016-10-24T15:17:13.016Z,27.77
2016-10-24T15:18:25.950Z,27.4
2016-10-24T15:19:38.638Z,26.44
2016-10-24T15:20:51.645Z,25.07
2016-10-24T15:22:04.121Z,24.68
2016-10-24T15:23:16.496Z,24.1
2016-10-24T15:24:29.412Z,23.23
2016-10-24T15:25:42.393Z,22.75
2016-10-24T15:26:53.763Z,22.27
2016-10-24T15:28:06.200Z,20.89
2016-10-24T15:29:19.769Z,20.89
2016-10-24T15:30:32.904Z,20.9
2016-10-24T15:31:45.916Z,20.12
2016-10-24T15:32:58.637Z,19.53
2016-10-24T15:34:10.643Z,19.54
2016-10-24T15:35:22.505Z,19.24
2016-10-24T15:36:34.444Z,19.53
2016-10-24T15:37:47.929Z,19.54
2016-10-24T15:39:00.960Z,19.93
2016-10-24T15:40:13.904Z,20.79
2016-10-24T15:41:26.525Z,21.67
2016-10-24T15:42:39.535Z,22.34
2016-10-24T15:43:51.990Z,23.22